createdAt,value
2023-04-12T00:02:35.000Z,67.33
2023-04-12T00:07:36.000Z,70.03
2023-04-12T00:12:35.000Z,71.76
2023-04-12T00:17:35.000Z,71.27
2023-04-12T00:22:36.000Z,71.24
2023-04-12T00:27:35.000Z,71.43
2023-04-12T00:32:35.000Z,68.81
2023-04-12T00:37:35.000Z,70.22
2023-04-12T00:42:35.000Z,68.68
2023-04-12T00:47:36.000Z,68.68
2023-04-12T00:52:35.000Z,67.32
2023-04-12T00:57:36.000Z,65.39
2023-04-12T01:02:36.000Z,64.12
2023-04-12T01:07:35.000Z,67.77
2023-04-12T01:12:36.000Z,70.46
2023-04-12T01:17:35.000Z,71.19
2023-04-12T01:22:36.000Z,72.37
2023-04-12T01:27:35.000Z,69.48
2023-04-12T01:32:36.000Z,69.35
2023-04-12T01:37:35.000Z,68.27
2023-04-12T01:42:36.000Z,68.17
2023-04-12T01:47:35.000Z,67.62
2023-04-12T01:52:35.000Z,67.62
2023-04-12T01:57:35.000Z,70.66
2023-04-12T02:02:35.000Z,71.42
2023-04-12T02:07:35.000Z,71.27
2023-04-12T02:12:35.000Z,70.54
2023-04-12T02:17:36.000Z,69.86
2023-04-12T02:22:35.000Z,69.79
2023-04-12T02:27:35.000Z,71.1
2023-04-12T02:32:35.000Z,73.43
2023-04-12T02:37:36.000Z,76.76
2023-04-12T02:42:35.000Z,75.76
2023-04-12T02:47:36.000Z,75.72
2023-04-12T02:52:35.000Z,77.54
2023-04-12T02:57:36.000Z,75.4
2023-04-12T03:02:35.000Z,71.96
2023-04-12T03:07:36.000Z,71.96
2023-04-12T03:12:35.000Z,69.41
2023-04-12T03:17:35.000Z,68.77
2023-04-12T03:22:35.000Z,71.25
2023-04-12T03:27:35.000Z,71.77
2023-04-12T03:32:35.000Z,70.12
2023-04-12T03:37:36.000Z,71.38
2023-04-12T03:42:43.000Z,71.44
2023-04-12T03:47:36.000Z,70.24
2023-04-12T03:52:36.000Z,70.11
2023-04-12T03:57:35.000Z,69.81
2023-04-12T04:02:36.000Z,71.07
2023-04-12T04:07:35.000Z,70.34
2023-04-12T04:12:35.000Z,69.67
2023-04-12T04:17:36.000Z,71.77
2023-04-12T04:22:35.000Z,71.77
2023-04-12T04:27:35.000Z,71.68
2023-04-12T04:32:35.000Z,71.79
2023-04-12T04:37:35.000Z,72.49
2023-04-12T04:42:35.000Z,72.28
2023-04-12T04:47:35.000Z,74.49
2023-04-12T04:52:36.000Z,75.7
2023-04-12T04:57:36.000Z,75.24
2023-04-12T05:02:36.000Z,73.05
2023-04-12T05:07:35.000Z,72.34
2023-04-12T05:12:35.000Z,74.6
2023-04-12T05:17:35.000Z,73.22
2023-04-12T05:22:36.000Z,72.39
2023-04-12T05:27:35.000Z,70.77
2023-04-12T05:32:36.000Z,70.77
2023-04-12T05:37:36.000Z,69.58
2023-04-12T05:42:35.000Z,67.43
2023-04-12T05:47:35.000Z,66.45
2023-04-12T05:52:35.000Z,63
2023-04-12T05:57:35.000Z,61.23
2023-04-12T06:02:36.000Z,55.49
2023-04-12T06:07:35.000Z,52.55
2023-04-12T06:12:35.000Z,48.48
2023-04-12T06:17:36.000Z,42.64
2023-04-12T06:22:35.000Z,37.38
2023-04-12T06:27:35.000Z,35.13
2023-04-12T06:32:36.000Z,34.26
2023-04-12T06:37:35.000Z,30.68
2023-04-12T06:42:35.000Z,28.56
2023-04-12T06:47:35.000Z,28.56
2023-04-12T06:52:37.000Z,25.97
2023-04-12T06:57:35.000Z,25.08
2023-04-12T07:02:36.000Z,23.21
2023-04-12T07:07:36.000Z,22.85
2023-04-12T07:12:36.000Z,23.05
2023-04-12T07:17:36.000Z,21.8
2023-04-12T07:22:36.000Z,20.02
2023-04-12T07:27:35.000Z,22.2
2023-04-12T07:32:36.000Z,23.62
2023-04-12T07:37:36.000Z,22.46
2023-04-12T07:42:36.000Z,24.46
2023-04-12T07:47:36.000Z,25.65
2023-04-12T07:52:36.000Z,25.73
2023-04-12T07:57:36.000Z,25.73
2023-04-12T08:02:35.000Z,25.7
2023-04-12T08:07:36.000Z,23.72
2023-04-12T08:12:36.000Z,24.49
2023-04-12T08:17:36.000Z,24.11
2023-04-12T08:22:35.000Z,22.11
2023-04-12T08:27:36.000Z,22.56
2023-04-12T08:32:36.000Z,21.85
2023-04-12T08:37:36.000Z,21.54
2023-04-12T08:42:36.000Z,21.89
2023-04-12T08:47:35.000Z,22.71
2023-04-12T08:52:35.000Z,21.08
2023-04-12T08:57:36.000Z,21.15
2023-04-12T09:02:35.000Z,21.98
2023-04-12T09:07:35.000Z,21.98
2023-04-12T09:12:36.000Z,23.84
2023-04-12T09:17:36.000Z,25.14
2023-04-12T09:22:35.000Z,24.17
2023-04-12T09:27:35.000Z,22.14
2023-04-12T09:32:35.000Z,23.89
2023-04-12T09:37:36.000Z,24.36
2023-04-12T09:42:44.000Z,25.47
2023-04-12T09:47:35.000Z,22.96
2023-04-12T09:52:36.000Z,23.68
2023-04-12T09:57:36.000Z,22.55
2023-04-12T10:02:36.000Z,22.9
2023-04-12T10:07:35.000Z,22.41
2023-04-12T10:12:36.000Z,22.11
2023-04-12T10:17:38.000Z,23.16
2023-04-12T10:22:36.000Z,23.16
2023-04-12T10:27:36.000Z,22.96
2023-04-12T10:32:36.000Z,21.41
2023-04-12T10:37:36.000Z,21.16
2023-04-12T10:42:35.000Z,22.99
2023-04-12T10:47:35.000Z,22.58
2023-04-12T10:52:36.000Z,23.65
2023-04-12T10:57:35.000Z,24.31
2023-04-12T11:02:36.000Z,24.82
2023-04-12T11:07:35.000Z,25.02
2023-04-12T11:12:36.000Z,23.59
2023-04-12T11:17:36.000Z,23.34
2023-04-12T11:22:36.000Z,24.01
2023-04-12T11:27:37.000Z,23.26
2023-04-12T11:32:36.000Z,25.87
2023-04-12T11:37:35.000Z,25.87
2023-04-12T11:42:36.000Z,23.55
2023-04-12T11:47:35.000Z,24.74
2023-04-12T11:52:35.000Z,24.14
2023-04-12T11:57:36.000Z,24.13
2023-04-12T12:02:43.000Z,24.43
2023-04-12T12:07:36.000Z,23.89
2023-04-12T12:12:36.000Z,23.07
2023-04-12T12:17:36.000Z,22.79
2023-04-12T12:22:35.000Z,23.09
2023-04-12T12:27:36.000Z,23.09
2023-04-12T12:32:35.000Z,20.8
2023-04-12T12:37:35.000Z,21.44
2023-04-12T12:42:36.000Z,21.85
2023-04-12T12:47:36.000Z,21.85
2023-04-12T12:52:35.000Z,21.86
2023-04-12T12:57:36.000Z,22.1
2023-04-12T13:02:36.000Z,21.86
2023-04-12T13:07:35.000Z,23.76
2023-04-12T13:12:36.000Z,22.83
2023-04-12T13:17:35.000Z,23.47
2023-04-12T13:22:35.000Z,23.52
2023-04-12T13:27:36.000Z,23.46
2023-04-12T13:32:35.000Z,24.06
2023-04-12T13:37:36.000Z,22.06
2023-04-12T13:42:35.000Z,22.88
2023-04-12T13:47:36.000Z,23.22
2023-04-12T13:52:35.000Z,22.44
2023-04-12T13:57:35.000Z,22.44
2023-04-12T14:02:36.000Z,22.81
2023-04-12T14:07:36.000Z,23.65
2023-04-12T14:12:37.000Z,22.53
2023-04-12T14:17:36.000Z,24.91
2023-04-12T14:22:36.000Z,26.3
2023-04-12T14:27:36.000Z,23.35
2023-04-12T14:32:36.000Z,23.5
2023-04-12T14:37:35.000Z,21.68
2023-04-12T14:42:37.000Z,20.82
2023-04-12T14:47:35.000Z,22.46
2023-04-12T14:52:35.000Z,27.28
2023-04-12T14:57:36.000Z,25.51
2023-04-12T15:02:36.000Z,24.93
2023-04-12T15:07:36.000Z,24.93
2023-04-12T15:12:35.000Z,24.6
2023-04-12T15:17:35.000Z,25.94
2023-04-12T15:22:35.000Z,26.18
2023-04-12T15:27:36.000Z,26.09
2023-04-12T15:32:35.000Z,28.83
2023-04-12T15:37:37.000Z,26.26
2023-04-12T15:42:36.000Z,27.11
2023-04-12T15:47:36.000Z,30.17
2023-04-12T15:52:35.000Z,35.02
2023-04-12T15:57:35.000Z,42.95
2023-04-12T16:02:36.000Z,45.76
2023-04-12T16:07:35.000Z,46.93
2023-04-12T16:12:35.000Z,46.7
2023-04-12T16:17:36.000Z,46.7
2023-04-12T16:22:44.000Z,51.89
2023-04-12T16:27:35.000Z,54.18
2023-04-12T16:32:35.000Z,53.2
2023-04-12T16:37:34.000Z,47.86
2023-04-12T16:42:35.000Z,48.78
2023-04-12T16:47:35.000Z,51.39
2023-04-12T16:52:35.000Z,48.29
2023-04-12T16:57:36.000Z,45.58
2023-04-12T17:02:35.000Z,43.59
2023-04-12T17:07:36.000Z,48.56
2023-04-12T17:12:35.000Z,51.89
2023-04-12T17:17:35.000Z,50.94
2023-04-12T17:22:36.000Z,53.33
2023-04-12T17:27:35.000Z,56.07
2023-04-12T17:32:35.000Z,56.07
2023-04-12T17:37:36.000Z,54.02
2023-04-12T17:42:35.000Z,59.29
2023-04-12T17:47:36.000Z,51.04
2023-04-12T17:52:35.000Z,53.64
2023-04-12T17:57:36.000Z,56.91
2023-04-12T18:02:36.000Z,56.54
2023-04-12T18:07:36.000Z,55.17
2023-04-12T18:12:35.000Z,55.9
2023-04-12T18:17:37.000Z,59.05
2023-04-12T18:22:35.000Z,60.26
2023-04-12T18:27:35.000Z,59.81
2023-04-12T18:32:35.000Z,59.29
2023-04-12T18:37:36.000Z,59.83
2023-04-12T18:42:36.000Z,59.83
2023-04-12T18:47:35.000Z,61.23
2023-04-12T18:52:35.000Z,64.52
2023-04-12T18:57:36.000Z,61.3
2023-04-12T19:02:36.000Z,56.74
2023-04-12T19:07:36.000Z,61.67
2023-04-12T19:12:36.000Z,66.44
2023-04-12T19:17:36.000Z,66.61
2023-04-12T19:22:36.000Z,69.59
2023-04-12T19:27:36.000Z,66.21
2023-04-12T19:32:35.000Z,60.91
2023-04-12T19:37:36.000Z,61.45
2023-04-12T19:42:36.000Z,61.12
2023-04-12T19:47:35.000Z,57.31
2023-04-12T19:52:35.000Z,59.42
2023-04-12T19:57:36.000Z,59.42
2023-04-12T20:02:36.000Z,62.08
2023-04-12T20:07:36.000Z,61.59
2023-04-12T20:12:35.000Z,71.92
2023-04-12T20:17:36.000Z,66.77
2023-04-12T20:22:36.000Z,60.94
2023-04-12T20:27:36.000Z,60.45
2023-04-12T20:32:35.000Z,68.04
2023-04-12T20:37:35.000Z,72.01
2023-04-12T20:42:36.000Z,63.78
2023-04-12T20:47:35.000Z,63.76
2023-04-12T20:52:36.000Z,62.88
2023-04-12T20:57:36.000Z,61.14
2023-04-12T21:02:37.000Z,63.86
2023-04-12T21:07:36.000Z,63.86
2023-04-12T21:12:36.000Z,61.34
2023-04-12T21:17:36.000Z,60.15
2023-04-12T21:22:35.000Z,59.97
2023-04-12T21:27:35.000Z,60.06
2023-04-12T21:32:36.000Z,62.57
2023-04-12T21:37:36.000Z,58.76
2023-04-12T21:42:36.000Z,58.41
2023-04-12T21:47:36.000Z,59.64
2023-04-12T21:52:35.000Z,57.84
2023-04-12T21:57:36.000Z,56.16
2023-04-12T22:02:35.000Z,56.16
2023-04-12T22:07:36.000Z,53.66
2023-04-12T22:12:35.000Z,54.08
2023-04-12T22:17:36.000Z,56.56
2023-04-12T22:22:35.000Z,56.56
2023-04-12T22:27:36.000Z,54.21
2023-04-12T22:32:35.000Z,54.07
2023-04-12T22:37:35.000Z,53.06
2023-04-12T22:42:35.000Z,52.48
2023-04-12T22:47:35.000Z,51.98
2023-04-12T22:52:36.000Z,54.44
2023-04-12T22:57:36.000Z,55.12
2023-04-12T23:02:36.000Z,60.12
2023-04-12T23:07:35.000Z,55.9
2023-04-12T23:12:35.000Z,55.74
2023-04-12T23:17:35.000Z,54.2
2023-04-12T23:22:35.000Z,53.98
2023-04-12T23:27:35.000Z,53.45
2023-04-12T23:32:35.000Z,55.54
2023-04-12T23:37:35.000Z,55.54
2023-04-12T23:42:35.000Z,54.46
2023-04-12T23:47:36.000Z,53.5
2023-04-12T23:52:35.000Z,52.94
2023-04-12T23:57:36.000Z,51.98
